Time;durP1;ratioP1;P1;durP2;ratioP2;P2;SDS_P1;SDS_P2;PMS_P1;PMS_P2;Temp;Humidity;BMP_temperature;BMP_pressure;BME280_temperature;BME280_humidity;BME280_pressure;Samples;Min_cycle;Max_cycle;Signal;HPM_P1;HPM_P2
2023/09/17 00:03:42;;;;;;;13.35;4.38;;;;;;;24.61;66.58;100991.88;20887205;28;20045;-73
2023/09/17 00:14:05;;;;;;;15.15;5.22;;;;;;;24.49;67.03;100995.06;20903119;28;20053;-74
2023/09/17 00:24:29;;;;;;;12.75;4.80;;;;;;;24.42;72.38;100973.75;20884779;28;20049;-74
2023/09/17 00:34:52;;;;;;;12.32;4.90;;;;;;;24.44;89.37;100985.38;20909044;28;20049;-73
2023/09/17 00:45:16;;;;;;;11.38;5.35;;;;;;;24.51;100.00;100981.50;20885003;28;20087;-74
2023/09/17 00:55:39;;;;;;;14.45;6.07;;;;;;;24.49;100.00;100981.56;20882467;28;20045;-74
2023/09/17 01:06:06;;;;;;;15.45;6.75;;;;;;;24.42;100.00;100980.03;20885367;28;20052;-73
2023/09/17 01:16:29;;;;;;;13.48;5.22;;;;;;;24.32;100.00;100970.53;20883114;28;20057;-74
2023/09/17 01:27:05;;;;;;;13.05;4.70;;;;;;;24.32;100.00;100962.44;20893309;28;20068;-73
2023/09/17 01:37:31;;;;;;;11.38;5.43;;;;;;;24.24;100.00;100953.75;20907551;28;20051;-74
2023/09/17 01:47:56;;;;;;;14.40;5.00;;;;;;;24.21;100.00;100968.25;20896504;28;20140;-74
2023/09/17 01:58:18;;;;;;;11.25;5.63;;;;;;;24.26;100.00;100954.56;20895972;28;20225;-74
2023/09/17 02:08:43;;;;;;;14.85;6.13;;;;;;;24.36;100.00;100937.06;20894557;28;20087;-74
2023/09/17 02:19:09;;;;;;;10.25;4.97;;;;;;;24.33;100.00;100925.53;20892810;28;20394;-75
2023/09/17 02:29:33;;;;;;;14.57;5.30;;;;;;;24.37;100.00;100922.66;20916444;28;20456;-74
2023/09/17 02:39:57;;;;;;;10.85;4.50;;;;;;;24.38;100.00;100921.72;20905252;28;20488;-74
2023/09/17 02:50:23;;;;;;;12.23;4.38;;;;;;;24.36;100.00;100918.19;20898239;28;20566;-74
2023/09/17 03:00:45;;;;;;;13.38;4.28;;;;;;;24.30;100.00;100922.94;20906921;28;20041;-74
2023/09/17 03:11:13;;;;;;;11.90;4.07;;;;;;;24.25;100.00;100930.34;20866784;28;20066;-73
2023/09/17 03:21:40;;;;;;;9.90;3.83;;;;;;;24.18;100.00;100932.34;20881622;28;20044;-74
2023/09/17 03:32:06;;;;;;;12.95;5.38;;;;;;;24.17;100.00;100925.19;20904680;28;20040;-73
2023/09/17 03:42:29;;;;;;;8.27;4.65;;;;;;;24.09;100.00;100928.19;20901041;28;20098;-73
2023/09/17 03:52:58;;;;;;;14.45;5.05;;;;;;;24.08;100.00;100930.97;20878795;28;20048;-73
2023/09/17 04:03:21;;;;;;;10.55;5.13;;;;;;;24.10;100.00;100940.72;20879836;28;20409;-74
2023/09/17 04:13:46;;;;;;;10.07;4.53;;;;;;;24.19;100.00;100950.34;20902990;28;20041;-73
2023/09/17 04:24:11;;;;;;;14.00;5.07;;;;;;;24.30;100.00;100958.03;20885064;28;20091;-74
2023/09/17 04:34:37;;;;;;;12.02;4.40;;;;;;;24.65;100.00;100965.66;20892011;28;20528;-74
2023/09/17 04:45:00;;;;;;;12.40;4.32;;;;;;;25.14;100.00;100961.88;20920298;28;20044;-74
2023/09/17 04:55:25;;;;;;;10.45;3.97;;;;;;;25.68;100.00;100976.75;20868885;28;20051;-74
2023/09/17 05:05:49;;;;;;;11.20;4.15;;;;;;;26.19;100.00;100973.53;20911515;28;20135;-74
2023/09/17 05:16:14;;;;;;;12.20;3.95;;;;;;;26.75;100.00;100970.06;20883290;28;20037;-74
2023/09/17 05:26:38;;;;;;;10.75;3.90;;;;;;;27.15;95.57;100974.44;20879643;28;20068;-74
2023/09/17 05:37:02;;;;;;;9.40;3.17;;;;;;;27.54;83.31;100966.16;20900148;28;20130;-74
2023/09/17 05:47:26;;;;;;;7.95;3.00;;;;;;;28.07;75.45;100964.22;20872120;28;20063;-74
2023/09/17 05:57:50;;;;;;;10.65;3.20;;;;;;;28.60;69.18;100973.13;20873545;28;20140;-74
2023/09/17 06:08:13;;;;;;;10.88;2.83;;;;;;;29.22;66.03;100975.88;20869895;28;20136;-74
2023/09/17 06:18:37;;;;;;;8.52;3.25;;;;;;;29.87;61.66;100998.31;20892286;28;20040;-75
2023/09/17 06:29:00;;;;;;;8.45;3.20;;;;;;;30.53;59.19;101016.97;20916479;28;20663;-74
2023/09/17 06:39:24;;;;;;;10.35;2.67;;;;;;;30.97;52.63;101026.88;20873919;28;20644;-74
2023/09/17 06:49:49;;;;;;;;;;;;;;;31.12;49.03;101028.63;20891388;28;20774;-74
2023/09/17 07:00:14;;;;;;;6.45;2.50;;;;;;;31.61;48.76;101035.34;20890393;28;20019;-74
2023/09/17 07:10:36;;;;;;;7.60;2.40;;;;;;;32.07;47.21;101040.38;20906827;28;20571;-75
2023/09/17 07:21:00;;;;;;;8.23;2.40;;;;;;;32.05;44.91;101025.94;20876557;28;20052;-76
2023/09/17 07:31:23;;;;;;;9.55;2.67;;;;;;;31.58;45.28;101020.97;20878784;28;20081;-75
2023/09/17 07:41:47;;;;;;;8.73;2.63;;;;;;;32.00;46.71;101037.19;20927714;28;20156;-74
2023/09/17 07:52:10;;;;;;;9.80;3.20;;;;;;;32.55;47.37;101048.88;20926622;28;20048;-76
2023/09/17 08:02:34;;;;;;;11.00;3.08;;;;;;;32.90;48.67;101052.69;20902475;28;20075;-76
2023/09/17 08:12:56;;;;;;;9.63;2.75;;;;;;;33.02;47.33;101038.09;20857427;28;21786;-74
2023/09/17 08:23:21;;;;;;;9.77;2.60;;;;;;;33.10;46.97;101040.28;20894104;28;20041;-74
2023/09/17 08:33:45;;;;;;;9.53;2.70;;;;;;;33.38;47.85;101050.06;20887609;28;20414;-74
2023/09/17 08:44:10;;;;;;;12.85;3.53;;;;;;;33.55;48.44;101046.94;20886395;28;20485;-74
2023/09/17 08:54:39;;;;;;;9.05;2.92;;;;;;;33.77;48.07;101033.38;20888774;28;20053;-74
2023/09/17 09:05:04;;;;;;;11.68;2.92;;;;;;;33.52;45.42;101044.44;20914413;28;20049;-74
2023/09/17 09:15:28;;;;;;;9.73;3.08;;;;;;;33.60;44.30;101044.72;20851701;28;20063;-73
2023/09/17 09:25:51;;;;;;;11.93;2.90;;;;;;;33.83;43.55;101049.34;20817690;28;20045;-74
2023/09/17 09:36:14;;;;;;;11.18;3.08;;;;;;;34.40;43.47;101051.28;20832752;28;20511;-74
2023/09/17 09:46:40;;;;;;;13.52;3.58;;;;;;;34.24;43.43;101059.00;20899938;28;20697;-74
2023/09/17 09:57:04;;;;;;;12.50;3.22;;;;;;;34.26;42.70;101055.16;20821086;28;20217;-74
2023/09/17 10:07:29;;;;;;;10.02;3.65;;;;;;;34.65;43.66;101059.31;20847504;28;20506;-74
2023/09/17 10:17:52;;;;;;;12.70;3.40;;;;;;;34.42;43.76;101059.41;20925684;28;20053;-75
2023/09/17 10:28:17;;;;;;;12.98;3.25;;;;;;;34.31;42.19;101060.25;20889369;28;20053;-74
2023/09/17 10:38:41;;;;;;;13.98;3.45;;;;;;;33.86;43.11;101043.66;20896042;28;20095;-74
2023/09/17 10:49:08;;;;;;;11.95;3.45;;;;;;;33.12;42.71;101033.72;20869863;28;20048;-74
2023/09/17 10:59:31;;;;;;;14.73;3.50;;;;;;;33.02;44.10;101029.88;20799696;28;20057;-74
2023/09/17 11:09:55;;;;;;;12.15;3.40;;;;;;;32.88;46.15;101024.56;20873714;28;20107;-74
2023/09/17 11:20:19;;;;;;;13.23;3.72;;;;;;;32.72;47.66;101021.19;20929714;28;20505;-73
2023/09/17 11:31:01;;;;;;;17.42;4.65;;;;;;;32.44;49.41;101012.22;20933471;28;20048;-74
2023/09/17 11:41:45;;;;;;;14.73;3.90;;;;;;;32.34;52.55;101011.13;20899752;28;20564;-73
2023/09/17 11:52:13;;;;;;;15.85;4.45;;;;;;;31.88;52.55;100988.00;20933315;28;20657;-74
2023/09/17 12:02:36;;;;;;;16.50;4.93;;;;;;;31.75;54.68;100957.06;20926905;28;20045;-73
2023/09/17 12:13:00;;;;;;;15.25;4.20;;;;;;;31.60;55.65;100957.13;20885588;28;20059;-73
2023/09/17 12:23:54;;;;;;;15.30;4.55;;;;;;;31.54;55.27;100953.91;20889879;28;20444;-74
2023/09/17 12:34:20;;;;;;;19.92;5.00;;;;;;;31.35;51.80;100956.16;20877359;28;20048;-74
2023/09/17 12:44:43;;;;;;;13.75;4.30;;;;;;;31.06;55.82;100960.81;20876319;28;20061;-74
2023/09/17 12:55:08;;;;;;;15.55;4.35;;;;;;;31.09;58.47;100964.25;20863594;28;20061;-73
2023/09/17 13:05:31;;;;;;;17.67;4.50;;;;;;;31.13;57.64;100953.97;20882184;28;20037;-73
2023/09/17 13:15:55;;;;;;;14.68;4.85;;;;;;;30.93;60.60;100935.31;20868683;28;20136;-73
2023/09/17 13:26:18;;;;;;;13.63;4.85;;;;;;;30.57;59.90;100931.31;20922019;28;20045;-74
2023/09/17 13:36:42;;;;;;;18.60;5.00;;;;;;;30.33;57.25;100935.56;20882536;28;20050;-74
2023/09/17 13:47:09;;;;;;;20.80;4.95;;;;;;;30.20;59.42;100937.31;20887519;28;20140;-73
2023/09/17 13:57:33;;;;;;;11.87;4.40;;;;;;;30.18;64.03;100950.19;20878176;28;20416;-74
2023/09/17 14:07:55;;;;;;;22.27;5.00;;;;;;;30.19;65.39;100947.38;20865592;28;20513;-74
2023/09/17 14:18:19;;;;;;;16.80;4.55;;;;;;;29.94;68.29;100942.53;20854827;28;20037;-74
2023/09/17 14:28:42;;;;;;;16.27;5.25;;;;;;;29.87;73.51;100941.13;20905881;28;20133;-73
2023/09/17 14:39:06;;;;;;;18.52;6.00;;;;;;;29.71;75.12;100959.41;20911610;28;20080;-74
2023/09/17 14:49:28;;;;;;;18.88;5.55;;;;;;;29.53;76.86;100955.06;20883973;28;20118;-74
2023/09/17 14:59:52;;;;;;;15.45;5.90;;;;;;;29.14;77.54;100951.00;20880017;28;20044;-73
2023/09/17 15:10:15;;;;;;;21.55;6.10;;;;;;;28.99;85.74;100951.00;20882759;28;20049;-72
2023/09/17 15:20:39;;;;;;;15.23;6.30;;;;;;;28.51;92.87;100963.66;20870759;28;20050;-71
2023/09/17 15:31:03;;;;;;;18.02;5.55;;;;;;;28.22;95.76;100951.69;20855643;28;20096;-72
2023/09/17 15:41:29;;;;;;;15.50;5.20;;;;;;;28.16;95.61;100949.28;20883204;28;20075;-72
2023/09/17 15:51:52;;;;;;;18.48;5.60;;;;;;;27.90;95.48;100933.47;20873524;28;20569;-72
2023/09/17 16:02:16;;;;;;;18.35;6.72;;;;;;;27.88;94.89;100927.28;20888871;28;20153;-72
2023/09/17 16:12:39;;;;;;;12.05;5.32;;;;;;;27.72;96.89;100941.66;20876859;28;20102;-72
2023/09/17 16:23:04;;;;;;;21.40;6.28;;;;;;;27.42;100.00;100926.97;20889874;28;20163;-72
2023/09/17 16:33:26;;;;;;;20.05;6.45;;;;;;;27.25;100.00;100929.63;20885648;28;20072;-72
2023/09/17 16:43:51;;;;;;;18.63;5.72;;;;;;;27.30;100.00;100936.59;20862999;28;20049;-73
2023/09/17 16:54:13;;;;;;;17.98;7.20;;;;;;;27.24;100.00;100934.19;20907149;28;20493;-73
2023/09/17 17:04:39;;;;;;;21.08;8.65;;;;;;;27.24;100.00;100949.59;20875400;28;20063;-71
2023/09/17 17:15:02;;;;;;;21.45;6.50;;;;;;;27.13;100.00;100943.81;20841698;28;20849;-71
2023/09/17 17:25:26;;;;;;;16.98;6.35;;;;;;;27.06;100.00;100959.50;20910521;28;20045;-72
2023/09/17 17:35:49;;;;;;;16.52;6.28;;;;;;;26.98;100.00;100962.59;20857349;28;20048;-73
2023/09/17 17:46:15;;;;;;;16.13;6.55;;;;;;;26.96;100.00;100969.94;20870003;28;20524;-73
2023/09/17 17:56:37;;;;;;;17.50;6.50;;;;;;;26.86;100.00;100979.41;20912654;28;20114;-73
2023/09/17 18:07:02;;;;;;;17.65;7.20;;;;;;;26.62;100.00;100977.00;20884240;28;20106;-73
2023/09/17 18:17:25;;;;;;;17.88;7.22;;;;;;;26.49;100.00;100990.25;20905653;28;20543;-72
2023/09/17 18:27:49;;;;;;;16.88;7.72;;;;;;;26.42;100.00;100994.19;20875634;28;20052;-72
2023/09/17 18:38:12;;;;;;;14.75;7.45;;;;;;;26.39;100.00;101007.84;20869780;28;20147;-73
2023/09/17 18:48:39;;;;;;;14.65;7.45;;;;;;;26.36;100.00;101013.44;20881569;28;20095;-72
2023/09/17 18:59:03;;;;;;;27.97;8.73;;;;;;;26.24;100.00;100997.72;20870374;28;20045;-72
2023/09/17 19:09:27;;;;;;;24.60;8.27;;;;;;;26.16;100.00;100993.53;20873604;28;20122;-73
2023/09/17 19:19:50;;;;;;;17.63;8.40;;;;;;;26.04;100.00;101010.31;20884645;28;20048;-73
2023/09/17 19:30:15;;;;;;;23.10;9.05;;;;;;;26.01;100.00;101006.84;20884984;28;20500;-72
2023/09/17 19:40:38;;;;;;;23.65;11.48;;;;;;;25.99;100.00;100996.09;20896750;28;20041;-72
2023/09/17 19:51:02;;;;;;;21.60;9.52;;;;;;;25.97;100.00;101005.25;20893707;28;20047;-72
2023/09/17 20:01:25;;;;;;;21.77;9.18;;;;;;;25.93;100.00;100982.81;20905517;28;20075;-72
2023/09/17 20:11:50;;;;;;;17.30;8.57;;;;;;;25.81;100.00;100975.25;20921200;28;20061;-72
2023/09/17 20:22:13;;;;;;;16.33;9.15;;;;;;;25.74;100.00;100979.19;20888970;28;20057;-72
2023/09/17 20:32:37;;;;;;;15.85;9.27;;;;;;;25.62;100.00;100958.97;20927100;28;20099;-73
2023/09/17 20:43:00;;;;;;;23.83;10.30;;;;;;;25.46;100.00;100949.72;20872499;28;20130;-73
2023/09/17 20:53:25;;;;;;;18.13;10.10;;;;;;;25.43;100.00;100939.03;20898702;28;20049;-73
2023/09/17 21:03:48;;;;;;;22.92;10.52;;;;;;;25.33;100.00;100926.88;20883729;28;20052;-73
2023/09/17 21:14:13;;;;;;;22.25;9.93;;;;;;;25.25;100.00;100916.38;20907956;28;20049;-74
2023/09/17 21:24:36;;;;;;;19.98;10.07;;;;;;;25.15;100.00;100912.28;20896256;28;20045;-73
2023/09/17 21:35:00;;;;;;;23.17;9.77;;;;;;;25.10;100.00;100900.81;20880775;28;20049;-73
2023/09/17 21:45:23;;;;;;;18.55;9.55;;;;;;;25.07;100.00;100894.66;20867555;28;20057;-73
2023/09/17 21:55:47;;;;;;;18.58;9.10;;;;;;;25.06;100.00;100885.69;20904236;28;20045;-73
2023/09/17 22:06:09;;;;;;;21.15;9.45;;;;;;;24.97;100.00;100880.66;20868899;28;20085;-73
2023/09/17 22:16:35;;;;;;;16.52;8.85;;;;;;;24.93;100.00;100884.44;20874614;28;20056;-72
2023/09/17 22:26:58;;;;;;;19.90;8.32;;;;;;;24.89;100.00;100883.66;20907519;28;20057;-73
2023/09/17 22:37:22;;;;;;;18.48;7.88;;;;;;;24.88;100.00;100878.28;20884763;28;20055;-74
2023/09/17 22:47:45;;;;;;;16.50;7.78;;;;;;;24.83;100.00;100877.59;20884321;28;20045;-73
2023/09/17 22:58:10;;;;;;;13.07;8.02;;;;;;;24.83;100.00;100862.28;20867803;28;20089;-73
2023/09/17 23:08:32;;;;;;;15.13;8.10;;;;;;;24.83;100.00;100878.50;20855611;28;20049;-73
2023/09/17 23:19:00;;;;;;;18.95;8.55;;;;;;;24.88;100.00;100849.47;20907952;28;20049;-73
2023/09/17 23:29:22;;;;;;;15.75;7.80;;;;;;;24.83;100.00;100845.19;20918125;28;20102;-73
2023/09/17 23:39:47;;;;;;;17.65;8.13;;;;;;;24.74;100.00;100838.38;20888171;28;20048;-75
2023/09/17 23:50:11;;;;;;;20.70;8.80;;;;;;;24.73;100.00;100822.22;20908167;28;20570;-73
